sensor_id;sensor_type;location;lat;lon;timestamp;temperature;humidity
35497;DHT22;21609;49.298;6.844;2023-02-21T00:02:40;17.10;54.50
35497;DHT22;21609;49.298;6.844;2023-02-21T00:05:24;17.10;53.90
35497;DHT22;21609;49.298;6.844;2023-02-21T00:08:08;17.10;53.90
35497;DHT22;21609;49.298;6.844;2023-02-21T00:10:52;17.10;54.00
35497;DHT22;21609;49.298;6.844;2023-02-21T00:13:37;17.10;53.90
35497;DHT22;21609;49.298;6.844;2023-02-21T00:16:21;17.10;54.00
35497;DHT22;21609;49.298;6.844;2023-02-21T00:19:06;17.10;54.00
35497;DHT22;21609;49.298;6.844;2023-02-21T00:21:51;17.10;54.00
35497;DHT22;21609;49.298;6.844;2023-02-21T00:24:35;17.00;53.90
35497;DHT22;21609;49.298;6.844;2023-02-21T00:27:19;17.10;54.00
35497;DHT22;21609;49.298;6.844;2023-02-21T00:30:05;17.00;54.00
35497;DHT22;21609;49.298;6.844;2023-02-21T00:32:49;17.00;54.00
35497;DHT22;21609;49.298;6.844;2023-02-21T00:35:34;17.00;54.00
35497;DHT22;21609;49.298;6.844;2023-02-21T00:38:18;17.00;54.00
35497;DHT22;21609;49.298;6.844;2023-02-21T00:41:02;17.00;54.00
35497;DHT22;21609;49.298;6.844;2023-02-21T00:43:45;17.00;54.00
35497;DHT22;21609;49.298;6.844;2023-02-21T00:46:30;17.00;54.00
35497;DHT22;21609;49.298;6.844;2023-02-21T00:49:14;17.00;54.00
35497;DHT22;21609;49.298;6.844;2023-02-21T00:51:58;17.00;54.00
35497;DHT22;21609;49.298;6.844;2023-02-21T00:54:42;17.00;54.00
35497;DHT22;21609;49.298;6.844;2023-02-21T00:57:26;17.00;54.00
35497;DHT22;21609;49.298;6.844;2023-02-21T01:00:19;17.00;54.00
35497;DHT22;21609;49.298;6.844;2023-02-21T01:03:03;17.00;54.00
35497;DHT22;21609;49.298;6.844;2023-02-21T01:05:48;17.00;54.00
35497;DHT22;21609;49.298;6.844;2023-02-21T01:08:32;16.90;54.00
35497;DHT22;21609;49.298;6.844;2023-02-21T01:11:19;16.90;54.00
35497;DHT22;21609;49.298;6.844;2023-02-21T01:14:03;16.90;54.00
35497;DHT22;21609;49.298;6.844;2023-02-21T01:16:48;16.90;54.00
35497;DHT22;21609;49.298;6.844;2023-02-21T01:19:32;16.90;54.00
35497;DHT22;21609;49.298;6.844;2023-02-21T01:22:16;16.90;54.00
35497;DHT22;21609;49.298;6.844;2023-02-21T01:25:00;16.90;54.00
35497;DHT22;21609;49.298;6.844;2023-02-21T01:27:44;16.90;54.00
35497;DHT22;21609;49.298;6.844;2023-02-21T01:30:28;16.90;54.00
35497;DHT22;21609;49.298;6.844;2023-02-21T01:33:12;16.90;54.00
35497;DHT22;21609;49.298;6.844;2023-02-21T01:35:56;16.90;54.00
35497;DHT22;21609;49.298;6.844;2023-02-21T01:38:40;16.90;54.00
35497;DHT22;21609;49.298;6.844;2023-02-21T01:41:25;16.90;54.00
35497;DHT22;21609;49.298;6.844;2023-02-21T01:47:12;16.90;54.10
35497;DHT22;21609;49.298;6.844;2023-02-21T01:49:58;16.90;54.10
35497;DHT22;21609;49.298;6.844;2023-02-21T01:52:44;16.80;54.00
35497;DHT22;21609;49.298;6.844;2023-02-21T01:55:28;16.80;54.00
35497;DHT22;21609;49.298;6.844;2023-02-21T01:58:12;16.80;54.00
35497;DHT22;21609;49.298;6.844;2023-02-21T02:00:57;16.80;54.00
35497;DHT22;21609;49.298;6.844;2023-02-21T02:03:41;16.80;54.00
35497;DHT22;21609;49.298;6.844;2023-02-21T02:06:25;16.80;54.00
35497;DHT22;21609;49.298;6.844;2023-02-21T02:09:20;16.80;54.00
35497;DHT22;21609;49.298;6.844;2023-02-21T02:15:01;16.80;54.00
35497;DHT22;21609;49.298;6.844;2023-02-21T02:17:53;16.80;54.00
35497;DHT22;21609;49.298;6.844;2023-02-21T02:23:25;16.80;54.10
35497;DHT22;21609;49.298;6.844;2023-02-21T02:31:48;16.70;54.00
35497;DHT22;21609;49.298;6.844;2023-02-21T02:34:36;16.70;54.00
35497;DHT22;21609;49.298;6.844;2023-02-21T02:39:56;16.70;54.00
35497;DHT22;21609;49.298;6.844;2023-02-21T02:42:35;16.70;54.00
35497;DHT22;21609;49.298;6.844;2023-02-21T02:47:39;16.70;54.00
35497;DHT22;21609;49.298;6.844;2023-02-21T02:50:07;16.70;54.00
35497;DHT22;21609;49.298;6.844;2023-02-21T02:52:34;16.70;54.10
35497;DHT22;21609;49.298;6.844;2023-02-21T02:55:04;16.70;54.30
35497;DHT22;21609;49.298;6.844;2023-02-21T02:57:31;16.70;54.10
35497;DHT22;21609;49.298;6.844;2023-02-21T03:00:06;16.70;54.00
35497;DHT22;21609;49.298;6.844;2023-02-21T03:08:19;16.70;54.10
35497;DHT22;21609;49.298;6.844;2023-02-21T03:18:53;16.60;54.00
35497;DHT22;21609;49.298;6.844;2023-02-21T03:21:25;16.60;54.00
35497;DHT22;21609;49.298;6.844;2023-02-21T03:23:55;16.60;54.00
35497;DHT22;21609;49.298;6.844;2023-02-21T03:26:21;16.60;54.00
35497;DHT22;21609;49.298;6.844;2023-02-21T03:28:47;16.60;54.20
35497;DHT22;21609;49.298;6.844;2023-02-21T03:31:16;16.60;54.00
35497;DHT22;21609;49.298;6.844;2023-02-21T03:33:44;16.60;54.60
35497;DHT22;21609;49.298;6.844;2023-02-21T03:36:10;16.60;54.00
35497;DHT22;21609;49.298;6.844;2023-02-21T03:38:36;16.60;54.00
35497;DHT22;21609;49.298;6.844;2023-02-21T03:41:02;16.60;54.00
35497;DHT22;21609;49.298;6.844;2023-02-21T03:43:28;16.60;54.00
35497;DHT22;21609;49.298;6.844;2023-02-21T03:45:53;16.60;54.00
35497;DHT22;21609;49.298;6.844;2023-02-21T03:48:19;16.50;54.00
35497;DHT22;21609;49.298;6.844;2023-02-21T03:50:44;16.60;54.00
35497;DHT22;21609;49.298;6.844;2023-02-21T03:53:10;16.50;54.00
35497;DHT22;21609;49.298;6.844;2023-02-21T03:55:35;16.50;54.00
35497;DHT22;21609;49.298;6.844;2023-02-21T03:58:01;16.50;54.00
35497;DHT22;21609;49.298;6.844;2023-02-21T04:00:27;16.50;54.00
35497;DHT22;21609;49.298;6.844;2023-02-21T04:02:52;16.50;54.00
35497;DHT22;21609;49.298;6.844;2023-02-21T04:05:18;16.50;54.00
35497;DHT22;21609;49.298;6.844;2023-02-21T04:07:43;16.60;54.10
35497;DHT22;21609;49.298;6.844;2023-02-21T04:10:09;16.50;54.00
35497;DHT22;21609;49.298;6.844;2023-02-21T04:12:34;16.50;54.00
35497;DHT22;21609;49.298;6.844;2023-02-21T04:15:00;16.50;54.00
35497;DHT22;21609;49.298;6.844;2023-02-21T04:17:25;16.50;54.00
35497;DHT22;21609;49.298;6.844;2023-02-21T04:19:51;16.50;54.00
35497;DHT22;21609;49.298;6.844;2023-02-21T04:22:17;16.50;54.00
35497;DHT22;21609;49.298;6.844;2023-02-21T04:24:42;16.50;54.00
35497;DHT22;21609;49.298;6.844;2023-02-21T04:27:08;16.50;54.00
35497;DHT22;21609;49.298;6.844;2023-02-21T04:29:33;16.50;54.00
35497;DHT22;21609;49.298;6.844;2023-02-21T04:31:59;16.50;54.00
35497;DHT22;21609;49.298;6.844;2023-02-21T04:34:25;16.50;54.00
35497;DHT22;21609;49.298;6.844;2023-02-21T04:36:50;16.50;54.00
35497;DHT22;21609;49.298;6.844;2023-02-21T04:39:16;16.50;54.00
35497;DHT22;21609;49.298;6.844;2023-02-21T04:41:41;16.40;54.00
35497;DHT22;21609;49.298;6.844;2023-02-21T04:44:07;16.40;54.00
35497;DHT22;21609;49.298;6.844;2023-02-21T04:46:33;16.40;54.00
35497;DHT22;21609;49.298;6.844;2023-02-21T04:48:59;16.40;54.00
35497;DHT22;21609;49.298;6.844;2023-02-21T04:51:25;16.40;54.00
35497;DHT22;21609;49.298;6.844;2023-02-21T04:53:53;16.40;54.60
35497;DHT22;21609;49.298;6.844;2023-02-21T04:56:21;16.40;54.00
35497;DHT22;21609;49.298;6.844;2023-02-21T04:58:47;16.40;54.00
35497;DHT22;21609;49.298;6.844;2023-02-21T05:01:15;16.40;54.00
35497;DHT22;21609;49.298;6.844;2023-02-21T05:03:41;16.40;54.10
35497;DHT22;21609;49.298;6.844;2023-02-21T05:06:07;16.40;54.30
35497;DHT22;21609;49.298;6.844;2023-02-21T05:08:34;16.40;54.00
35497;DHT22;21609;49.298;6.844;2023-02-21T05:11:00;16.40;54.00
35497;DHT22;21609;49.298;6.844;2023-02-21T05:13:25;16.40;54.00
35497;DHT22;21609;49.298;6.844;2023-02-21T05:15:51;16.40;54.00
35497;DHT22;21609;49.298;6.844;2023-02-21T05:18:16;16.40;54.00
35497;DHT22;21609;49.298;6.844;2023-02-21T05:20:47;16.40;54.00
35497;DHT22;21609;49.298;6.844;2023-02-21T05:23:13;16.40;54.00
35497;DHT22;21609;49.298;6.844;2023-02-21T05:25:41;16.30;54.00
35497;DHT22;21609;49.298;6.844;2023-02-21T05:28:07;16.30;54.00
35497;DHT22;21609;49.298;6.844;2023-02-21T05:30:33;16.40;54.00
35497;DHT22;21609;49.298;6.844;2023-02-21T05:32:58;16.40;54.00
35497;DHT22;21609;49.298;6.844;2023-02-21T05:35:25;16.40;54.00
35497;DHT22;21609;49.298;6.844;2023-02-21T05:37:51;16.30;54.00
35497;DHT22;21609;49.298;6.844;2023-02-21T05:40:17;16.40;54.00
35497;DHT22;21609;49.298;6.844;2023-02-21T05:42:42;16.30;54.00
35497;DHT22;21609;49.298;6.844;2023-02-21T05:45:08;16.30;54.00
35497;DHT22;21609;49.298;6.844;2023-02-21T05:47:34;16.30;54.60
35497;DHT22;21609;49.298;6.844;2023-02-21T05:50:00;16.30;54.00
35497;DHT22;21609;49.298;6.844;2023-02-21T05:52:26;16.30;54.00
35497;DHT22;21609;49.298;6.844;2023-02-21T05:54:51;16.30;54.00
35497;DHT22;21609;49.298;6.844;2023-02-21T05:57:18;16.30;54.00
35497;DHT22;21609;49.298;6.844;2023-02-21T05:59:44;16.30;54.00
35497;DHT22;21609;49.298;6.844;2023-02-21T06:02:15;16.30;53.90
35497;DHT22;21609;49.298;6.844;2023-02-21T06:04:40;16.30;54.00
35497;DHT22;21609;49.298;6.844;2023-02-21T06:07:06;16.20;53.90
35497;DHT22;21609;49.298;6.844;2023-02-21T06:09:32;16.30;54.00
35497;DHT22;21609;49.298;6.844;2023-02-21T06:11:57;16.20;53.90
35497;DHT22;21609;49.298;6.844;2023-02-21T06:14:23;16.30;54.00
35497;DHT22;21609;49.298;6.844;2023-02-21T06:16:49;16.20;53.90
35497;DHT22;21609;49.298;6.844;2023-02-21T06:19:16;16.20;54.50
35497;DHT22;21609;49.298;6.844;2023-02-21T06:21:42;16.20;53.90
35497;DHT22;21609;49.298;6.844;2023-02-21T06:24:09;16.20;53.90
35497;DHT22;21609;49.298;6.844;2023-02-21T06:26:35;16.30;53.90
35497;DHT22;21609;49.298;6.844;2023-02-21T06:29:05;16.20;53.90
35497;DHT22;21609;49.298;6.844;2023-02-21T06:31:31;16.30;54.00
35497;DHT22;21609;49.298;6.844;2023-02-21T06:33:57;16.20;53.90
35497;DHT22;21609;49.298;6.844;2023-02-21T06:36:24;16.20;53.90
35497;DHT22;21609;49.298;6.844;2023-02-21T06:38:52;16.20;53.90
35497;DHT22;21609;49.298;6.844;2023-02-21T06:41:24;16.20;53.90
35497;DHT22;21609;49.298;6.844;2023-02-21T06:43:51;16.20;54.00
35497;DHT22;21609;49.298;6.844;2023-02-21T06:46:19;16.20;53.90
35497;DHT22;21609;49.298;6.844;2023-02-21T06:48:45;16.20;53.90
35497;DHT22;21609;49.298;6.844;2023-02-21T06:51:11;16.20;53.90
35497;DHT22;21609;49.298;6.844;2023-02-21T06:53:39;16.20;53.90
35497;DHT22;21609;49.298;6.844;2023-02-21T06:56:05;16.20;54.00
35497;DHT22;21609;49.298;6.844;2023-02-21T06:58:30;16.20;53.90
35497;DHT22;21609;49.298;6.844;2023-02-21T07:00:56;16.20;53.90
35497;DHT22;21609;49.298;6.844;2023-02-21T07:03:21;16.20;53.90
35497;DHT22;21609;49.298;6.844;2023-02-21T07:05:47;16.20;53.80
35497;DHT22;21609;49.298;6.844;2023-02-21T07:08:12;16.20;53.80
35497;DHT22;21609;49.298;6.844;2023-02-21T07:10:38;16.20;53.90
35497;DHT22;21609;49.298;6.844;2023-02-21T07:13:03;16.10;53.90
35497;DHT22;21609;49.298;6.844;2023-02-21T07:15:29;16.10;53.90
35497;DHT22;21609;49.298;6.844;2023-02-21T07:17:55;16.10;53.90
35497;DHT22;21609;49.298;6.844;2023-02-21T07:20:20;16.00;53.50
35497;DHT22;21609;49.298;6.844;2023-02-21T07:22:46;16.00;54.10
35497;DHT22;21609;49.298;6.844;2023-02-21T07:25:16;16.10;54.10
35497;DHT22;21609;49.298;6.844;2023-02-21T07:27:43;16.10;53.90
35497;DHT22;21609;49.298;6.844;2023-02-21T07:30:11;16.10;53.80
35497;DHT22;21609;49.298;6.844;2023-02-21T07:32:36;16.10;53.80
35497;DHT22;21609;49.298;6.844;2023-02-21T07:35:03;16.10;53.80
35497;DHT22;21609;49.298;6.844;2023-02-21T07:37:28;16.20;53.80
35497;DHT22;21609;49.298;6.844;2023-02-21T07:39:54;16.10;53.80
35497;DHT22;21609;49.298;6.844;2023-02-21T07:42:19;16.20;53.90
35497;DHT22;21609;49.298;6.844;2023-02-21T07:44:46;16.20;54.40
35497;DHT22;21609;49.298;6.844;2023-02-21T07:47:12;16.20;53.80
35497;DHT22;21609;49.298;6.844;2023-02-21T07:49:38;16.30;53.80
35497;DHT22;21609;49.298;6.844;2023-02-21T07:52:04;16.30;53.80
35497;DHT22;21609;49.298;6.844;2023-02-21T07:54:30;16.30;53.80
35497;DHT22;21609;49.298;6.844;2023-02-21T07:56:55;16.40;53.90
35497;DHT22;21609;49.298;6.844;2023-02-21T07:59:21;16.60;53.60
35497;DHT22;21609;49.298;6.844;2023-02-21T08:01:46;16.70;53.30
35497;DHT22;21609;49.298;6.844;2023-02-21T08:04:12;16.60;53.50
35497;DHT22;21609;49.298;6.844;2023-02-21T08:06:38;16.60;53.70
35497;DHT22;21609;49.298;6.844;2023-02-21T08:09:04;16.60;53.80
35497;DHT22;21609;49.298;6.844;2023-02-21T08:11:31;16.60;53.90
35497;DHT22;21609;49.298;6.844;2023-02-21T08:13:57;16.50;53.90
35497;DHT22;21609;49.298;6.844;2023-02-21T08:16:23;16.60;54.00
35497;DHT22;21609;49.298;6.844;2023-02-21T08:18:49;16.60;54.00
35497;DHT22;21609;49.298;6.844;2023-02-21T08:21:15;16.60;54.00
35497;DHT22;21609;49.298;6.844;2023-02-21T08:23:41;16.60;54.60
35497;DHT22;21609;49.298;6.844;2023-02-21T08:26:06;16.70;54.00
35497;DHT22;21609;49.298;6.844;2023-02-21T08:28:32;16.70;53.90
35497;DHT22;21609;49.298;6.844;2023-02-21T08:30:58;16.90;53.70
35497;DHT22;21609;49.298;6.844;2023-02-21T08:33:24;17.00;53.40
35497;DHT22;21609;49.298;6.844;2023-02-21T08:35:49;17.00;53.40
35497;DHT22;21609;49.298;6.844;2023-02-21T08:38:17;17.10;53.60
35497;DHT22;21609;49.298;6.844;2023-02-21T08:40:43;17.20;53.50
35497;DHT22;21609;49.298;6.844;2023-02-21T08:43:09;17.20;53.60
35497;DHT22;21609;49.298;6.844;2023-02-21T08:45:35;17.30;53.60
35497;DHT22;21609;49.298;6.844;2023-02-21T08:48:01;17.30;53.60
35497;DHT22;21609;49.298;6.844;2023-02-21T08:50:27;17.30;53.80
35497;DHT22;21609;49.298;6.844;2023-02-21T08:52:53;17.30;53.80
35497;DHT22;21609;49.298;6.844;2023-02-21T08:55:19;17.30;53.90
35497;DHT22;21609;49.298;6.844;2023-02-21T08:57:50;17.30;53.90
35497;DHT22;21609;49.298;6.844;2023-02-21T09:00:17;17.40;53.90
35497;DHT22;21609;49.298;6.844;2023-02-21T09:02:43;17.40;53.90
35497;DHT22;21609;49.298;6.844;2023-02-21T09:05:16;17.40;53.80
35497;DHT22;21609;49.298;6.844;2023-02-21T09:07:43;17.40;53.90
35497;DHT22;21609;49.298;6.844;2023-02-21T09:10:09;17.50;53.90
35497;DHT22;21609;49.298;6.844;2023-02-21T09:12:36;17.50;53.80
35497;DHT22;21609;49.298;6.844;2023-02-21T09:15:02;17.50;53.70
35497;DHT22;21609;49.298;6.844;2023-02-21T09:17:28;17.50;53.70
35497;DHT22;21609;49.298;6.844;2023-02-21T09:19:59;17.60;53.80
35497;DHT22;21609;49.298;6.844;2023-02-21T09:22:25;17.60;53.70
35497;DHT22;21609;49.298;6.844;2023-02-21T09:24:50;17.60;53.70
35497;DHT22;21609;49.298;6.844;2023-02-21T09:27:16;17.70;53.70
35497;DHT22;21609;49.298;6.844;2023-02-21T09:29:42;17.70;53.70
35497;DHT22;21609;49.298;6.844;2023-02-21T09:32:07;17.70;53.70
35497;DHT22;21609;49.298;6.844;2023-02-21T09:34:33;17.70;53.60
35497;DHT22;21609;49.298;6.844;2023-02-21T09:37:03;17.70;53.50
35497;DHT22;21609;49.298;6.844;2023-02-21T09:39:29;17.70;53.60
35497;DHT22;21609;49.298;6.844;2023-02-21T09:41:54;17.80;53.60
35497;DHT22;21609;49.298;6.844;2023-02-21T09:44:26;17.80;53.60
35497;DHT22;21609;49.298;6.844;2023-02-21T09:47:04;17.90;53.50
35497;DHT22;21609;49.298;6.844;2023-02-21T09:49:38;17.90;53.50
35497;DHT22;21609;49.298;6.844;2023-02-21T09:52:05;17.90;53.50
35497;DHT22;21609;49.298;6.844;2023-02-21T09:54:35;17.90;53.50
35497;DHT22;21609;49.298;6.844;2023-02-21T09:57:04;17.90;53.50
35497;DHT22;21609;49.298;6.844;2023-02-21T09:59:30;18.00;53.60
35497;DHT22;21609;49.298;6.844;2023-02-21T10:05:02;18.10;53.60
35497;DHT22;21609;49.298;6.844;2023-02-21T10:07:44;18.10;53.60
35497;DHT22;21609;49.298;6.844;2023-02-21T10:10:13;18.10;53.60
35497;DHT22;21609;49.298;6.844;2023-02-21T10:12:51;18.10;53.60
35497;DHT22;21609;49.298;6.844;2023-02-21T10:18:31;18.30;53.40
35497;DHT22;21609;49.298;6.844;2023-02-21T10:21:01;18.30;53.40
35497;DHT22;21609;49.298;6.844;2023-02-21T10:23:32;18.30;53.40
35497;DHT22;21609;49.298;6.844;2023-02-21T10:26:04;18.40;53.40
35497;DHT22;21609;49.298;6.844;2023-02-21T10:28:32;18.40;53.40
35497;DHT22;21609;49.298;6.844;2023-02-21T10:31:00;18.40;53.40
35497;DHT22;21609;49.298;6.844;2023-02-21T10:33:27;18.40;53.30
35497;DHT22;21609;49.298;6.844;2023-02-21T10:35:53;18.40;53.30
35497;DHT22;21609;49.298;6.844;2023-02-21T10:38:22;18.40;53.30
35497;DHT22;21609;49.298;6.844;2023-02-21T10:41:01;18.50;53.30
35497;DHT22;21609;49.298;6.844;2023-02-21T10:43:43;18.50;53.20
35497;DHT22;21609;49.298;6.844;2023-02-21T10:46:15;18.60;53.10
35497;DHT22;21609;49.298;6.844;2023-02-21T10:48:43;18.60;53.00
35497;DHT22;21609;49.298;6.844;2023-02-21T10:51:16;18.70;53.00
35497;DHT22;21609;49.298;6.844;2023-02-21T10:53:46;18.70;52.90
35497;DHT22;21609;49.298;6.844;2023-02-21T10:58:49;18.90;53.00
35497;DHT22;21609;49.298;6.844;2023-02-21T11:01:19;18.90;52.90
35497;DHT22;21609;49.298;6.844;2023-02-21T11:03:55;19.00;53.00
35497;DHT22;21609;49.298;6.844;2023-02-21T11:06:34;19.00;53.60
35497;DHT22;21609;49.298;6.844;2023-02-21T11:09:01;19.00;53.00
35497;DHT22;21609;49.298;6.844;2023-02-21T11:16:43;19.10;53.00
35497;DHT22;21609;49.298;6.844;2023-02-21T11:19:12;19.10;53.00
35497;DHT22;21609;49.298;6.844;2023-02-21T11:21:40;19.20;53.00
35497;DHT22;21609;49.298;6.844;2023-02-21T11:24:07;19.20;53.00
35497;DHT22;21609;49.298;6.844;2023-02-21T11:26:47;19.20;53.00
35497;DHT22;21609;49.298;6.844;2023-02-21T11:29:20;19.30;52.80
35497;DHT22;21609;49.298;6.844;2023-02-21T11:31:48;19.40;52.60
35497;DHT22;21609;49.298;6.844;2023-02-21T11:34:15;19.50;52.50
35497;DHT22;21609;49.298;6.844;2023-02-21T11:36:43;19.50;52.60
35497;DHT22;21609;49.298;6.844;2023-02-21T11:39:18;19.60;52.60
35497;DHT22;21609;49.298;6.844;2023-02-21T11:41:48;19.60;52.60
35497;DHT22;21609;49.298;6.844;2023-02-21T11:44:32;19.70;52.50
35497;DHT22;21609;49.298;6.844;2023-02-21T11:52:24;19.90;52.40
35497;DHT22;21609;49.298;6.844;2023-02-21T11:54:50;20.00;52.40
35497;DHT22;21609;49.298;6.844;2023-02-21T11:57:20;20.10;52.40
35497;DHT22;21609;49.298;6.844;2023-02-21T12:05:26;20.20;52.10
35497;DHT22;21609;49.298;6.844;2023-02-21T12:13:14;20.50;52.60
35497;DHT22;21609;49.298;6.844;2023-02-21T12:21:18;20.70;51.60
35497;DHT22;21609;49.298;6.844;2023-02-21T12:24:01;20.80;51.60
35497;DHT22;21609;49.298;6.844;2023-02-21T12:26:59;20.80;51.60
35497;DHT22;21609;49.298;6.844;2023-02-21T12:29:46;20.90;51.60
35497;DHT22;21609;49.298;6.844;2023-02-21T12:32:20;20.90;51.50
35497;DHT22;21609;49.298;6.844;2023-02-21T12:38:06;20.60;51.30
35497;DHT22;21609;49.298;6.844;2023-02-21T12:43:46;20.50;51.90
35497;DHT22;21609;49.298;6.844;2023-02-21T12:46:31;20.50;51.80
35497;DHT22;21609;49.298;6.844;2023-02-21T12:51:52;20.50;51.80
35497;DHT22;21609;49.298;6.844;2023-02-21T12:54:33;20.50;51.80
35497;DHT22;21609;49.298;6.844;2023-02-21T12:57:06;20.60;51.80
35497;DHT22;21609;49.298;6.844;2023-02-21T12:59:54;20.60;51.80
35497;DHT22;21609;49.298;6.844;2023-02-21T13:02:50;20.60;51.60
35497;DHT22;21609;49.298;6.844;2023-02-21T13:05:20;20.70;51.60
35497;DHT22;21609;49.298;6.844;2023-02-21T13:07:54;20.70;51.70
35497;DHT22;21609;49.298;6.844;2023-02-21T13:10:25;20.80;51.50
35497;DHT22;21609;49.298;6.844;2023-02-21T13:13:08;20.80;51.50
35497;DHT22;21609;49.298;6.844;2023-02-21T13:15:36;20.90;51.50
35497;DHT22;21609;49.298;6.844;2023-02-21T13:29:47;21.00;51.50
35497;DHT22;21609;49.298;6.844;2023-02-21T13:32:16;21.10;51.50
35497;DHT22;21609;49.298;6.844;2023-02-21T13:35:17;21.10;51.30
35497;DHT22;21609;49.298;6.844;2023-02-21T13:37:45;21.10;51.20
35497;DHT22;21609;49.298;6.844;2023-02-21T13:42:48;21.20;51.20
35497;DHT22;21609;49.298;6.844;2023-02-21T13:45:23;21.20;51.20
35497;DHT22;21609;49.298;6.844;2023-02-21T13:55:34;21.30;50.90
35497;DHT22;21609;49.298;6.844;2023-02-21T14:03:09;21.40;50.80
35497;DHT22;21609;49.298;6.844;2023-02-21T14:10:51;21.40;50.60
35497;DHT22;21609;49.298;6.844;2023-02-21T14:13:38;21.40;50.70
35497;DHT22;21609;49.298;6.844;2023-02-21T14:21:40;21.40;50.40
35497;DHT22;21609;49.298;6.844;2023-02-21T14:32:30;21.40;50.30
35497;DHT22;21609;49.298;6.844;2023-02-21T14:56:25;21.90;50.10
35497;DHT22;21609;49.298;6.844;2023-02-21T14:59:25;21.90;50.30
35497;DHT22;21609;49.298;6.844;2023-02-21T15:02:15;21.90;50.40
35497;DHT22;21609;49.298;6.844;2023-02-21T15:04:54;21.80;50.40
35497;DHT22;21609;49.298;6.844;2023-02-21T15:07:47;21.80;50.60
35497;DHT22;21609;49.298;6.844;2023-02-21T15:10:28;21.80;50.80
35497;DHT22;21609;49.298;6.844;2023-02-21T15:12:57;21.70;50.70
35497;DHT22;21609;49.298;6.844;2023-02-21T15:15:26;21.70;50.80
35497;DHT22;21609;49.298;6.844;2023-02-21T15:18:05;21.70;50.90
35497;DHT22;21609;49.298;6.844;2023-02-21T15:20:34;21.60;50.80
35497;DHT22;21609;49.298;6.844;2023-02-21T15:23:14;21.60;50.90
35497;DHT22;21609;49.298;6.844;2023-02-21T15:25:42;21.50;50.90
35497;DHT22;21609;49.298;6.844;2023-02-21T15:28:28;21.50;50.90
35497;DHT22;21609;49.298;6.844;2023-02-21T15:33:25;21.40;50.90
35497;DHT22;21609;49.298;6.844;2023-02-21T15:35:56;21.40;51.00
35497;DHT22;21609;49.298;6.844;2023-02-21T15:40:55;21.30;51.10
35497;DHT22;21609;49.298;6.844;2023-02-21T15:43:38;21.30;51.20
35497;DHT22;21609;49.298;6.844;2023-02-21T15:46:08;21.30;51.30
35497;DHT22;21609;49.298;6.844;2023-02-21T15:48:36;21.20;51.40
35497;DHT22;21609;49.298;6.844;2023-02-21T15:51:04;21.20;51.40
35497;DHT22;21609;49.298;6.844;2023-02-21T15:53:31;21.20;51.40
35497;DHT22;21609;49.298;6.844;2023-02-21T15:56:16;21.10;51.50
35497;DHT22;21609;49.298;6.844;2023-02-21T15:59:24;21.00;51.50
35497;DHT22;21609;49.298;6.844;2023-02-21T16:02:22;21.00;51.60
35497;DHT22;21609;49.298;6.844;2023-02-21T16:04:50;21.00;51.40
35497;DHT22;21609;49.298;6.844;2023-02-21T16:07:36;21.00;51.30
35497;DHT22;21609;49.298;6.844;2023-02-21T16:10:07;20.90;51.30
35497;DHT22;21609;49.298;6.844;2023-02-21T16:12:43;20.90;51.40
35497;DHT22;21609;49.298;6.844;2023-02-21T16:15:21;20.80;51.40
35497;DHT22;21609;49.298;6.844;2023-02-21T16:17:56;20.80;51.40
35497;DHT22;21609;49.298;6.844;2023-02-21T16:20:27;20.80;51.40
35497;DHT22;21609;49.298;6.844;2023-02-21T16:26:19;20.70;51.40
35497;DHT22;21609;49.298;6.844;2023-02-21T16:28:52;20.60;51.10
35497;DHT22;21609;49.298;6.844;2023-02-21T16:31:28;20.60;51.40
35497;DHT22;21609;49.298;6.844;2023-02-21T16:33:54;20.50;51.80
35497;DHT22;21609;49.298;6.844;2023-02-21T16:36:26;20.50;51.80
35497;DHT22;21609;49.298;6.844;2023-02-21T16:38:53;20.50;51.80
35497;DHT22;21609;49.298;6.844;2023-02-21T16:41:19;20.50;51.70
35497;DHT22;21609;49.298;6.844;2023-02-21T16:43:45;20.50;51.70
35497;DHT22;21609;49.298;6.844;2023-02-21T16:46:11;20.40;51.70
35497;DHT22;21609;49.298;6.844;2023-02-21T16:48:37;20.40;51.70
35497;DHT22;21609;49.298;6.844;2023-02-21T16:51:06;20.40;51.80
35497;DHT22;21609;49.298;6.844;2023-02-21T16:53:34;20.30;51.80
35497;DHT22;21609;49.298;6.844;2023-02-21T16:56:00;20.40;51.80
35497;DHT22;21609;49.298;6.844;2023-02-21T16:58:32;20.30;51.70
35497;DHT22;21609;49.298;6.844;2023-02-21T17:01:06;20.30;51.80
35497;DHT22;21609;49.298;6.844;2023-02-21T17:03:32;20.30;51.70
35497;DHT22;21609;49.298;6.844;2023-02-21T17:05:59;20.30;51.70
35497;DHT22;21609;49.298;6.844;2023-02-21T17:08:25;20.20;51.70
35497;DHT22;21609;49.298;6.844;2023-02-21T17:10:52;20.20;51.80
35497;DHT22;21609;49.298;6.844;2023-02-21T17:13:17;20.20;51.90
35497;DHT22;21609;49.298;6.844;2023-02-21T17:15:43;20.20;51.90
35497;DHT22;21609;49.298;6.844;2023-02-21T17:18:09;20.10;51.90
35497;DHT22;21609;49.298;6.844;2023-02-21T17:20:35;20.20;51.90
35497;DHT22;21609;49.298;6.844;2023-02-21T17:23:00;20.20;51.80
35497;DHT22;21609;49.298;6.844;2023-02-21T17:25:27;20.10;51.90
35497;DHT22;21609;49.298;6.844;2023-02-21T17:27:53;20.00;52.00
35497;DHT22;21609;49.298;6.844;2023-02-21T17:30:22;20.00;52.00
35497;DHT22;21609;49.298;6.844;2023-02-21T17:32:49;20.00;52.10
35497;DHT22;21609;49.298;6.844;2023-02-21T17:35:16;20.00;52.10
35497;DHT22;21609;49.298;6.844;2023-02-21T17:37:44;19.90;52.00
35497;DHT22;21609;49.298;6.844;2023-02-21T17:40:12;20.00;52.20
35497;DHT22;21609;49.298;6.844;2023-02-21T17:42:39;19.90;52.10
35497;DHT22;21609;49.298;6.844;2023-02-21T17:45:05;19.90;52.10
35497;DHT22;21609;49.298;6.844;2023-02-21T17:47:31;19.90;52.30
35497;DHT22;21609;49.298;6.844;2023-02-21T17:49:57;19.90;52.20
35497;DHT22;21609;49.298;6.844;2023-02-21T17:52:24;19.80;52.20
35497;DHT22;21609;49.298;6.844;2023-02-21T17:54:50;19.80;52.30
35497;DHT22;21609;49.298;6.844;2023-02-21T17:57:16;19.80;52.30
35497;DHT22;21609;49.298;6.844;2023-02-21T17:59:42;19.80;52.30
35497;DHT22;21609;49.298;6.844;2023-02-21T18:02:08;19.80;52.30
35497;DHT22;21609;49.298;6.844;2023-02-21T18:04:34;19.80;52.40
35497;DHT22;21609;49.298;6.844;2023-02-21T18:06:59;19.70;52.20
35497;DHT22;21609;49.298;6.844;2023-02-21T18:09:25;19.70;52.20
35497;DHT22;21609;49.298;6.844;2023-02-21T18:11:53;19.70;52.30
35497;DHT22;21609;49.298;6.844;2023-02-21T18:14:20;19.70;52.40
35497;DHT22;21609;49.298;6.844;2023-02-21T18:16:46;19.70;52.40
35497;DHT22;21609;49.298;6.844;2023-02-21T18:19:11;19.60;52.30
35497;DHT22;21609;49.298;6.844;2023-02-21T18:21:37;19.60;52.40
35497;DHT22;21609;49.298;6.844;2023-02-21T18:24:09;19.60;52.40
35497;DHT22;21609;49.298;6.844;2023-02-21T18:26:35;19.60;52.50
35497;DHT22;21609;49.298;6.844;2023-02-21T18:29:01;19.60;52.40
35497;DHT22;21609;49.298;6.844;2023-02-21T18:31:27;19.60;52.40